This is the latest recevied weather packets stored in our database for station/object IZ1HMT-3. If no packets are shown the sender has not sent any weather packets the latest 10 day(s).
| Time | Temp. | Humidity | Pressure | Rain* | Wind** | Luminosity | Snow |
|---|---|---|---|---|---|---|---|
| 1787573563 | 33.89° C | 40% | 1016.7 hPa | - | - | - | - |
| 1787572354 | 32.78° C | 44% | 1016.6 hPa | - | - | - | - |
| 1787571750 | 32.78° C | 44% | 1016.5 hPa | - | - | - | - |
| 1787571146 | 32.22° C | 44% | 1016.4 hPa | - | - | - | - |
| 1787570541 | 32.22° C | 44% | 1016.5 hPa | - | - | - | - |
| 1787569938 | 32.22° C | 44% | 1016.6 hPa | - | - | - | - |
| 1787569333 | 32.22° C | 44% | 1016.7 hPa | - | - | - | - |
| 1787568723 | 32.78° C | 43% | 1016.8 hPa | - | - | - | - |
| 1787568118 | 32.22° C | 44% | 1016.8 hPa | - | - | - | - |
| 1787567514 | 32.22° C | 43% | 1016.8 hPa | - | - | - | - |
| 1787566910 | 32.78° C | 43% | 1017 hPa | - | - | - | - |
| 1787566306 | 33.33° C | 40% | 1016.9 hPa | - | - | - | - |
| 1787565701 | 35° C | 37% | 1016.9 hPa | - | - | - | - |
| 1787565097 | 36.11° C | 34% | 1016.8 hPa | - | - | - | - |
| 1787564511 | 37.78° C | 31% | 1016.7 hPa | - | - | - | - |
| 1787563888 | 38.89° C | 29% | 1016.8 hPa | - | - | - | - |
| 1787561471 | 38.33° C | 28% | 1016.7 hPa | - | - | - | - |
| 1787560867 | 39.44° C | 27% | 1016.7 hPa | - | - | - | - |
| 1787560263 | 40.56° C | 27% | 1016.7 hPa | - | - | - | - |
| 1787559054 | 41.67° C | 24% | 1016.7 hPa | - | - | - | - |
| 1787558450 | 40.56° C | 27% | 1016.8 hPa | - | - | - | - |
| 1787557846 | 39.44° C | 28% | 1016.8 hPa | - | - | - | - |
| 1787557241 | 39.44° C | 28% | 1016.9 hPa | - | - | - | - |
| 1787556637 | 38.33° C | 28% | 1016.7 hPa | - | - | - | - |
| 1787556033 | 37.78° C | 30% | 1016.5 hPa | - | - | - | - |
* Rain since midnight (hover to see other rain measurements)
** Current wind speed in m/s (hover to see current wind gust speed)